createdAt,value
2022-11-29T00:01:21.801Z,101134.25
2022-11-29T00:03:48.118Z,101139.81
2022-11-29T00:06:15.545Z,101137.09
2022-11-29T00:08:42.417Z,101135.94
2022-11-29T00:11:10.480Z,101140.38
2022-11-29T00:13:37.010Z,101137.25
2022-11-29T00:16:07.458Z,101142.19
2022-11-29T00:18:34.079Z,101139.97
2022-11-29T00:21:05.021Z,101149.00
2022-11-29T00:23:31.372Z,101138.72
2022-11-29T00:26:02.743Z,101137.75
2022-11-29T00:28:29.050Z,101132.63
2022-11-29T00:30:55.426Z,101140.41
2022-11-29T00:33:21.749Z,101134.63
2022-11-29T00:35:48.089Z,101132.75
2022-11-29T00:38:14.490Z,101141.47
2022-11-29T00:40:40.825Z,101128.19
2022-11-29T00:43:07.125Z,101138.16
2022-11-29T00:45:33.639Z,101134.84
2022-11-29T00:48:00.009Z,101133.50
2022-11-29T00:50:26.378Z,101133.59
2022-11-29T00:52:52.693Z,101135.13
2022-11-29T00:55:19.021Z,101138.41
2022-11-29T00:57:45.311Z,101146.16
2022-11-29T01:00:11.927Z,101140.31
2022-11-29T01:02:38.232Z,101142.84
2022-11-29T01:05:04.674Z,101140.31
2022-11-29T01:07:31.020Z,101141.28
2022-11-29T01:09:57.394Z,101132.59
2022-11-29T01:12:23.953Z,101140.47
2022-11-29T01:14:50.274Z,101137.50
2022-11-29T01:17:16.582Z,101136.13
2022-11-29T01:19:47.831Z,101134.06
2022-11-29T01:22:16.937Z,101137.31
2022-11-29T01:24:43.421Z,101136.78
2022-11-29T01:27:10.052Z,101135.59
2022-11-29T01:29:36.358Z,101131.19
2022-11-29T01:32:02.693Z,101144.53
2022-11-29T01:34:29.002Z,101140.97
2022-11-29T01:36:55.311Z,101146.41
2022-11-29T01:39:21.644Z,101145.38
2022-11-29T01:41:47.939Z,101145.63
2022-11-29T01:44:14.194Z,101142.59
2022-11-29T01:46:42.362Z,101144.47
2022-11-29T01:49:11.550Z,101139.06
2022-11-29T01:51:39.014Z,101142.75
2022-11-29T01:54:05.880Z,101137.16
2022-11-29T01:56:33.747Z,101132.47
2022-11-29T01:59:01.870Z,101131.56
2022-11-29T02:01:28.284Z,101143.22
2022-11-29T02:03:54.766Z,101140.41
2022-11-29T02:06:22.036Z,101137.72
2022-11-29T02:08:48.353Z,101144.22
2022-11-29T02:11:33.587Z,101137.06
2022-11-29T02:14:24.077Z,101139.19
2022-11-29T02:17:00.593Z,101139.06
2022-11-29T02:19:29.857Z,101137.69
2022-11-29T02:22:04.154Z,101138.88
2022-11-29T02:24:48.421Z,101141.94
2022-11-29T02:27:33.728Z,101143.69
2022-11-29T02:30:15.317Z,101147.19
2022-11-29T02:33:00.569Z,101146.94
2022-11-29T02:35:38.672Z,101148.66
2022-11-29T02:38:15.631Z,101143.38
2022-11-29T02:41:06.729Z,101150.59
2022-11-29T02:43:39.815Z,101150.78
2022-11-29T02:46:16.732Z,101152.41
2022-11-29T02:49:15.502Z,101149.72
2022-11-29T02:52:00.311Z,101153.03
2022-11-29T02:54:29.875Z,101161.91
2022-11-29T02:57:04.483Z,101158.13
2022-11-29T02:59:30.738Z,101150.38
2022-11-29T03:02:03.188Z,101157.63
2022-11-29T03:04:48.317Z,101154.94
2022-11-29T03:07:25.708Z,101158.53
2022-11-29T03:09:57.597Z,101155.41
2022-11-29T03:12:32.164Z,101162.75
2022-11-29T03:15:17.522Z,101163.34
2022-11-29T03:18:19.483Z,101159.22
2022-11-29T03:20:51.896Z,101165.16
2022-11-29T03:23:28.159Z,101169.56
2022-11-29T03:26:04.416Z,101170.47
2022-11-29T03:28:53.921Z,101178.25
2022-11-29T03:31:20.233Z,101177.31
2022-11-29T03:34:04.810Z,101174.72
2022-11-29T03:36:31.189Z,101180.47
2022-11-29T03:39:02.767Z,101181.03
2022-11-29T03:41:35.689Z,101188.66
2022-11-29T03:44:34.504Z,101182.13
2022-11-29T03:47:04.401Z,101186.38
2022-11-29T03:49:33.651Z,101183.16
2022-11-29T03:52:02.888Z,101178.38
2022-11-29T03:54:35.126Z,101181.09
2022-11-29T03:57:01.547Z,101182.44
2022-11-29T03:59:32.819Z,101178.69
2022-11-29T04:01:59.175Z,101173.66
2022-11-29T04:04:37.550Z,101178.69
2022-11-29T04:07:19.648Z,101184.56
2022-11-29T04:10:03.284Z,101185.97
2022-11-29T04:12:48.755Z,101180.19
2022-11-29T04:15:27.254Z,101176.81
2022-11-29T04:17:53.724Z,101179.69
2022-11-29T04:20:20.036Z,101182.72
2022-11-29T04:23:12.764Z,101184.56
2022-11-29T04:25:55.326Z,101189.03
2022-11-29T04:28:41.793Z,101183.66
2022-11-29T04:31:26.899Z,101184.38
2022-11-29T04:34:10.114Z,101176.53
2022-11-29T04:36:39.471Z,101180.34
2022-11-29T04:39:18.637Z,101187.09
2022-11-29T04:42:00.705Z,101186.03
2022-11-29T04:44:46.094Z,101190.94
2022-11-29T04:47:23.891Z,101190.78
2022-11-29T04:49:59.837Z,101191.59
2022-11-29T04:52:32.208Z,101196.66
2022-11-29T04:55:01.542Z,101195.34
2022-11-29T04:57:33.924Z,101199.31
2022-11-29T05:00:09.865Z,101200.16
2022-11-29T05:02:54.023Z,101191.84
2022-11-29T05:05:23.356Z,101202.19
2022-11-29T05:08:01.946Z,101199.56
2022-11-29T05:10:31.973Z,101202.25
2022-11-29T05:13:06.020Z,101193.69
2022-11-29T05:15:44.830Z,101199.31
2022-11-29T05:18:34.597Z,101204.59
2022-11-29T05:21:03.958Z,101212.41
2022-11-29T05:23:45.935Z,101213.38
2022-11-29T05:26:32.412Z,101219.47
2022-11-29T05:29:02.996Z,101225.03
2022-11-29T05:31:29.459Z,101221.56
2022-11-29T05:34:21.429Z,101220.66
2022-11-29T05:37:02.950Z,101231.72
2022-11-29T05:39:38.442Z,101241.56
2022-11-29T05:42:07.756Z,101231.00
2022-11-29T05:44:50.981Z,101236.28
2022-11-29T05:47:32.367Z,101236.41
2022-11-29T05:50:01.797Z,101232.00
2022-11-29T05:52:36.598Z,101242.28
2022-11-29T05:55:17.059Z,101246.88
2022-11-29T05:57:46.373Z,101239.09
2022-11-29T06:00:14.564Z,101252.88
2022-11-29T06:02:47.085Z,101242.03
2022-11-29T06:05:28.874Z,101251.25
2022-11-29T06:08:08.793Z,101254.47
2022-11-29T06:10:37.572Z,101254.69
2022-11-29T06:13:22.948Z,101260.44
2022-11-29T06:16:04.822Z,101263.53
2022-11-29T06:18:38.798Z,101262.34
2022-11-29T06:21:16.321Z,101261.50
2022-11-29T06:24:01.015Z,101270.50
2022-11-29T06:26:49.099Z,101272.66
2022-11-29T06:29:29.607Z,101277.66
2022-11-29T06:32:03.299Z,101277.16
2022-11-29T06:34:49.894Z,101282.94
2022-11-29T06:37:19.934Z,101272.94
2022-11-29T06:39:49.687Z,101284.34
2022-11-29T06:42:16.324Z,101287.16
2022-11-29T06:44:43.176Z,101286.84
2022-11-29T06:47:25.912Z,101285.63
2022-11-29T06:50:01.117Z,101297.75
2022-11-29T06:52:34.345Z,101300.28
2022-11-29T06:55:06.070Z,101303.66
2022-11-29T06:57:44.522Z,101302.72
2022-11-29T07:00:16.432Z,101296.44
2022-11-29T07:02:57.928Z,101310.69
2022-11-29T07:05:27.665Z,101308.28
2022-11-29T07:07:55.660Z,101308.44
2022-11-29T07:10:22.801Z,101305.47
2022-11-29T07:12:50.329Z,101315.03
2022-11-29T07:15:18.013Z,101316.34
2022-11-29T07:18:02.578Z,101315.34
2022-11-29T07:20:31.909Z,101312.38
2022-11-29T07:23:22.403Z,101313.81
2022-11-29T07:26:31.112Z,101320.47
2022-11-29T07:29:07.811Z,101323.28
2022-11-29T07:31:53.099Z,101323.75
2022-11-29T07:34:25.502Z,101324.94
2022-11-29T07:37:10.713Z,101328.47
2022-11-29T07:39:42.467Z,101330.69
2022-11-29T07:42:16.141Z,101340.00
2022-11-29T07:44:55.914Z,101340.56
2022-11-29T07:47:22.538Z,101343.81
2022-11-29T07:49:48.986Z,101343.81
2022-11-29T07:52:16.431Z,101348.81
2022-11-29T07:54:43.439Z,101348.13
2022-11-29T07:57:10.238Z,101357.53
2022-11-29T07:59:37.982Z,101347.81
2022-11-29T08:02:10.134Z,101346.97
2022-11-29T08:04:47.114Z,101342.91
2022-11-29T08:07:13.590Z,101355.81
2022-11-29T08:09:39.904Z,101350.16
2022-11-29T08:12:06.455Z,101356.00
2022-11-29T08:14:33.385Z,101352.34
2022-11-29T08:16:59.771Z,101358.91
2022-11-29T08:19:26.086Z,101351.78
2022-11-29T08:21:52.493Z,101365.53
2022-11-29T08:24:18.898Z,101358.84
2022-11-29T08:26:45.293Z,101360.41
2022-11-29T08:29:11.750Z,101361.25
2022-11-29T08:31:38.477Z,101367.78
2022-11-29T08:34:05.675Z,101372.56
2022-11-29T08:36:32.462Z,101366.03
2022-11-29T08:39:09.156Z,101370.31
2022-11-29T08:41:36.505Z,101365.66
2022-11-29T08:44:04.738Z,101362.66
2022-11-29T08:46:49.957Z,101368.19
2022-11-29T08:49:16.387Z,101364.94
2022-11-29T08:51:42.753Z,101371.13
2022-11-29T08:54:09.154Z,101364.78
2022-11-29T08:59:22.802Z,101368.06
2022-11-29T09:01:49.166Z,101379.44
2022-11-29T09:04:17.095Z,101377.88
2022-11-29T09:06:44.419Z,101375.72
2022-11-29T09:09:10.788Z,101376.84
2022-11-29T09:11:37.243Z,101376.25
2022-11-29T09:14:04.887Z,101379.56
2022-11-29T09:16:33.512Z,101387.25
2022-11-29T09:19:00.167Z,101390.00
2022-11-29T09:21:30.363Z,101386.13
2022-11-29T09:23:59.263Z,101396.72
2022-11-29T09:26:27.562Z,101391.03
2022-11-29T09:28:54.102Z,101388.94
2022-11-29T09:31:21.398Z,101390.28
2022-11-29T09:33:48.301Z,101391.94
2022-11-29T09:36:14.830Z,101394.63
2022-11-29T09:38:41.265Z,101392.03
2022-11-29T09:41:26.066Z,101394.81
2022-11-29T09:44:12.658Z,101399.56
2022-11-29T09:46:45.542Z,101389.13
2022-11-29T09:49:18.104Z,101387.34
2022-11-29T09:51:54.629Z,101391.94
2022-11-29T09:54:29.180Z,101395.50
2022-11-29T09:56:57.252Z,101395.66
2022-11-29T09:59:31.721Z,101399.63
2022-11-29T10:01:58.405Z,101397.84
2022-11-29T10:04:27.452Z,101392.72
2022-11-29T10:07:12.773Z,101399.69
2022-11-29T10:09:44.132Z,101399.72
2022-11-29T10:49:37.951Z,101417.69
2022-11-29T10:52:05.417Z,101420.59
2022-11-29T10:54:58.743Z,101417.09
2022-11-29T10:57:25.270Z,101420.22
2022-11-29T10:59:59.039Z,101423.66
2022-11-29T11:02:25.709Z,101420.19
2022-11-29T11:04:52.042Z,101414.66
2022-11-29T11:07:27.629Z,101418.59
2022-11-29T11:20:31.681Z,101415.00
2022-11-29T11:26:26.641Z,101416.28
2022-11-29T11:32:20.964Z,101414.44
2022-11-29T11:38:23.098Z,101426.97
2022-11-29T11:44:58.423Z,101420.19
2022-11-29T11:47:21.194Z,101423.81
2022-11-29T11:49:47.464Z,101430.56
2022-11-29T11:52:17.088Z,101433.97
2022-11-29T11:54:45.428Z,101430.03
2022-11-29T11:57:16.764Z,101428.13
2022-11-29T11:59:47.651Z,101431.84
2022-11-29T12:02:36.117Z,101431.84
2022-11-29T12:05:05.179Z,101418.53
2022-11-29T12:08:06.672Z,101428.16
2022-11-29T12:10:28.252Z,101432.91
2022-11-29T12:12:56.613Z,101432.91
2022-11-29T12:15:29.497Z,101430.84
2022-11-29T12:18:04.963Z,101438.28
2022-11-29T12:20:50.969Z,101435.81
2022-11-29T12:23:27.157Z,101446.81
2022-11-29T12:25:57.240Z,101434.56
2022-11-29T12:28:31.875Z,101444.06
2022-11-29T12:30:58.162Z,101445.16
2022-11-29T12:33:43.466Z,101445.69
2022-11-29T12:36:27.186Z,101443.03
2022-11-29T12:39:06.506Z,101447.91
2022-11-29T12:41:36.956Z,101449.19
2022-11-29T12:44:22.228Z,101453.63
2022-11-29T12:47:02.124Z,101452.91
2022-11-29T12:49:51.859Z,101464.53
2022-11-29T12:52:22.208Z,101454.84
2022-11-29T12:54:57.214Z,101459.84
2022-11-29T12:57:41.942Z,101465.28
2022-11-29T13:00:12.791Z,101461.72
2022-11-29T13:02:54.432Z,101469.25
2022-11-29T13:05:24.600Z,101468.44
2022-11-29T13:08:09.755Z,101467.50
2022-11-29T13:10:45.152Z,101478.94
2022-11-29T13:13:37.425Z,101476.78
2022-11-29T13:16:27.714Z,101478.59
2022-11-29T13:19:07.189Z,101476.47
2022-11-29T13:21:39.595Z,101480.81
2022-11-29T13:24:09.748Z,101474.47
2022-11-29T13:26:37.727Z,101478.03
2022-11-29T13:29:04.580Z,101481.78
2022-11-29T13:31:31.342Z,101478.41
2022-11-29T13:34:03.640Z,101487.66
2022-11-29T13:36:30.035Z,101488.88
2022-11-29T13:39:15.988Z,101486.28
2022-11-29T13:41:48.972Z,101486.03
2022-11-29T13:44:38.173Z,101482.81
2022-11-29T13:47:11.723Z,101496.66
2022-11-29T13:49:57.370Z,101490.16
2022-11-29T13:52:58.114Z,101489.91
2022-11-29T13:55:31.515Z,101492.75
2022-11-29T13:58:17.872Z,101491.38
2022-11-29T14:00:44.508Z,101497.00
2022-11-29T14:03:23.102Z,101495.47
2022-11-29T14:05:56.572Z,101491.47
2022-11-29T14:08:54.532Z,101501.28
2022-11-29T14:11:40.698Z,101498.34
2022-11-29T14:14:07.201Z,101498.91
2022-11-29T14:23:39.055Z,101512.50
2022-11-29T14:26:05.553Z,101512.53
2022-11-29T14:35:43.106Z,101512.63
2022-11-29T14:45:36.808Z,101517.59
2022-11-29T14:48:05.459Z,101519.81
2022-11-29T14:50:36.231Z,101514.06
2022-11-29T14:53:04.084Z,101514.97
2022-11-29T14:58:35.984Z,101526.53
2022-11-29T15:01:09.561Z,101529.06
2022-11-29T15:03:57.916Z,101524.13
2022-11-29T15:06:26.043Z,101539.63
2022-11-29T15:09:06.470Z,101529.44
2022-11-29T15:25:52.054Z,101542.97
2022-11-29T15:28:23.392Z,101551.19
2022-11-29T15:37:36.698Z,101554.56
2022-11-29T15:40:06.142Z,101558.88
2022-11-29T15:43:02.038Z,101561.97
2022-11-29T15:45:32.841Z,101558.97
2022-11-29T15:48:12.416Z,101568.88
2022-11-29T15:50:43.552Z,101565.84
2022-11-29T15:53:15.565Z,101566.28
2022-11-29T15:55:42.742Z,101568.31
2022-11-29T15:58:12.882Z,101574.69
2022-11-29T16:00:39.846Z,101578.13
2022-11-29T16:03:07.842Z,101583.00
2022-11-29T16:05:36.519Z,101588.84
2022-11-29T16:08:21.322Z,101594.25
2022-11-29T16:10:53.386Z,101594.53
2022-11-29T16:13:25.920Z,101592.50
2022-11-29T16:16:06.143Z,101588.84
2022-11-29T16:22:02.171Z,101594.25
2022-11-29T16:24:28.518Z,101604.91
2022-11-29T16:26:55.255Z,101609.72
2022-11-29T16:29:29.785Z,101599.09
2022-11-29T16:31:56.340Z,101607.16
2022-11-29T16:34:33.047Z,101605.28
2022-11-29T16:37:01.191Z,101610.97
2022-11-29T16:39:28.135Z,101619.16
2022-11-29T16:42:13.213Z,101616.31
2022-11-29T16:44:39.492Z,101621.72
2022-11-29T16:47:43.820Z,101616.06
2022-11-29T16:50:19.441Z,101595.88
2022-11-29T16:52:49.732Z,101614.88
2022-11-29T16:55:18.999Z,101617.22
2022-11-29T16:57:46.013Z,101614.34
2022-11-29T17:00:31.719Z,101622.03
2022-11-29T17:02:58.460Z,101620.06
2022-11-29T17:05:25.104Z,101623.31
2022-11-29T17:07:51.605Z,101622.44
2022-11-29T17:10:19.051Z,101624.94
2022-11-29T17:12:48.179Z,101626.69
2022-11-29T17:15:14.950Z,101624.66
2022-11-29T17:17:42.411Z,101625.22
2022-11-29T17:20:10.301Z,101624.16
2022-11-29T17:22:36.696Z,101627.91
2022-11-29T17:25:03.530Z,101628.66
2022-11-29T17:27:29.832Z,101632.34
2022-11-29T17:29:57.311Z,101627.38
2022-11-29T17:32:26.787Z,101629.56
2022-11-29T17:34:53.511Z,101624.69
2022-11-29T17:37:19.941Z,101639.50
2022-11-29T17:39:48.384Z,101637.44
2022-11-29T17:42:14.932Z,101631.94
2022-11-29T17:44:41.495Z,101636.06
2022-11-29T17:47:07.882Z,101629.13
2022-11-29T17:49:34.272Z,101643.34
2022-11-29T17:52:00.644Z,101642.34
2022-11-29T17:54:27.056Z,101642.06
2022-11-29T17:56:53.365Z,101648.97
2022-11-29T17:59:20.506Z,101646.88
2022-11-29T18:01:47.409Z,101650.13
2022-11-29T18:04:14.175Z,101653.84
2022-11-29T18:06:40.559Z,101649.22
2022-11-29T18:09:08.496Z,101656.06
2022-11-29T18:11:47.987Z,101645.81
2022-11-29T18:14:17.096Z,101646.56
2022-11-29T18:16:45.522Z,101656.25
2022-11-29T18:19:13.414Z,101657.97
2022-11-29T18:21:39.750Z,101659.28
2022-11-29T18:24:06.948Z,101663.56
2022-11-29T18:26:34.289Z,101674.53
2022-11-29T18:29:00.976Z,101662.94
2022-11-29T18:31:28.883Z,101670.88
2022-11-29T18:33:56.541Z,101669.56
2022-11-29T18:36:46.206Z,101663.47
2022-11-29T18:39:17.050Z,101668.63
2022-11-29T18:41:46.839Z,101671.41
2022-11-29T18:44:15.354Z,101672.06
2022-11-29T18:46:45.652Z,101668.63
2022-11-29T18:49:14.010Z,101675.97
2022-11-29T18:51:43.053Z,101670.13
2022-11-29T18:54:09.914Z,101674.06
2022-11-29T18:56:36.648Z,101673.13
2022-11-29T18:59:08.640Z,101680.31
2022-11-29T19:01:41.111Z,101676.72
2022-11-29T19:04:14.238Z,101678.16
2022-11-29T19:06:41.437Z,101677.88
2022-11-29T19:09:11.255Z,101673.75
2022-11-29T19:11:37.789Z,101680.38
2022-11-29T19:14:05.418Z,101678.63
2022-11-29T19:17:20.533Z,101673.53
2022-11-29T19:19:47.153Z,101684.66
2022-11-29T19:22:13.885Z,101686.50
2022-11-29T19:24:40.482Z,101675.13
2022-11-29T19:27:07.027Z,101678.72
2022-11-29T19:29:39.351Z,101683.47
2022-11-29T19:32:08.454Z,101684.75
2022-11-29T19:34:37.586Z,101685.59
2022-11-29T19:37:04.001Z,101681.03
2022-11-29T19:39:31.252Z,101673.84
2022-11-29T19:41:57.740Z,101679.22
2022-11-29T19:44:29.803Z,101679.50
2022-11-29T19:46:56.462Z,101683.28
2022-11-29T19:49:22.975Z,101681.81
2022-11-29T19:51:49.353Z,101694.28
2022-11-29T19:54:17.995Z,101685.31
2022-11-29T19:56:44.478Z,101685.88
2022-11-29T19:59:11.342Z,101686.03
2022-11-29T20:01:42.671Z,101686.84
2022-11-29T20:04:10.663Z,101690.13
2022-11-29T20:06:37.580Z,101696.19
2022-11-29T20:09:04.434Z,101694.09
2022-11-29T20:11:31.225Z,101700.53
2022-11-29T20:13:59.153Z,101703.22
2022-11-29T20:16:28.943Z,101704.34
2022-11-29T20:18:56.263Z,101706.44
2022-11-29T20:21:24.351Z,101710.66
2022-11-29T20:23:59.329Z,101707.25
2022-11-29T20:26:26.976Z,101705.59
2022-11-29T20:28:53.643Z,101710.38
2022-11-29T20:31:22.941Z,101704.34
2022-11-29T20:33:52.055Z,101714.41
2022-11-29T20:36:37.287Z,101706.72
2022-11-29T20:39:12.133Z,101710.41
2022-11-29T20:41:38.801Z,101712.81
2022-11-29T20:44:05.487Z,101718.84
2022-11-29T20:46:32.235Z,101714.66
2022-11-29T20:49:04.731Z,101716.50
2022-11-29T20:51:37.147Z,101721.59
2022-11-29T20:54:03.880Z,101727.84
2022-11-29T20:56:47.756Z,101720.28
2022-11-29T20:59:24.727Z,101725.09
2022-11-29T21:01:51.550Z,101728.00
2022-11-29T21:04:23.728Z,101724.59
2022-11-29T21:06:50.526Z,101728.16
2022-11-29T21:09:17.435Z,101739.00
2022-11-29T21:11:44.172Z,101736.19
2022-11-29T21:14:13.754Z,101731.03
2022-11-29T21:16:40.474Z,101738.59
2022-11-29T21:19:22.563Z,101742.56
2022-11-29T21:21:51.922Z,101738.53
2022-11-29T21:24:27.528Z,101738.09
2022-11-29T21:26:57.522Z,101739.50
2022-11-29T21:29:24.562Z,101743.44
2022-11-29T21:31:53.358Z,101739.69
2022-11-29T21:34:23.339Z,101742.16
2022-11-29T21:36:54.549Z,101745.00
2022-11-29T21:39:21.086Z,101748.59
2022-11-29T21:41:47.556Z,101743.41
2022-11-29T21:44:14.089Z,101750.16
2022-11-29T21:46:40.567Z,101743.91
2022-11-29T21:49:07.097Z,101739.66
2022-11-29T21:51:33.604Z,101749.22
2022-11-29T21:54:03.856Z,101741.94
2022-11-29T21:56:30.433Z,101751.13
2022-11-29T21:58:56.905Z,101755.03
2022-11-29T22:01:23.524Z,101751.19
2022-11-29T22:03:52.558Z,101753.84
2022-11-29T22:06:20.461Z,101756.44
2022-11-29T22:08:47.910Z,101758.81
2022-11-29T22:11:15.630Z,101759.28
2022-11-29T22:14:05.011Z,101757.00
2022-11-29T22:16:31.410Z,101764.47
2022-11-29T22:18:58.327Z,101763.81
2022-11-29T22:21:24.873Z,101757.78
2022-11-29T22:23:52.102Z,101748.88
2022-11-29T22:26:18.504Z,101750.50
2022-11-29T22:28:44.977Z,101764.16
2022-11-29T22:31:12.242Z,101757.69
2022-11-29T22:33:38.973Z,101755.59
2022-11-29T22:36:06.946Z,101752.91
2022-11-29T22:38:33.812Z,101760.13
2022-11-29T22:41:01.279Z,101764.16
2022-11-29T22:43:28.180Z,101761.59
2022-11-29T22:45:54.729Z,101766.06
2022-11-29T22:48:21.056Z,101759.34
2022-11-29T22:50:47.419Z,101760.22
2022-11-29T22:53:13.805Z,101758.56
2022-11-29T22:55:40.149Z,101768.03
2022-11-29T22:58:06.618Z,101773.50
2022-11-29T23:00:34.933Z,101766.34
2022-11-29T23:03:01.284Z,101771.88
2022-11-29T23:05:32.099Z,101765.66
2022-11-29T23:07:58.903Z,101773.34
2022-11-29T23:10:25.307Z,101774.47
2022-11-29T23:12:51.604Z,101773.94
2022-11-29T23:15:17.927Z,101774.25
2022-11-29T23:17:44.296Z,101778.72
2022-11-29T23:20:10.723Z,101781.66
2022-11-29T23:22:39.211Z,101780.44
2022-11-29T23:25:06.904Z,101779.72
2022-11-29T23:27:33.234Z,101782.22
2022-11-29T23:29:59.619Z,101771.47
2022-11-29T23:32:25.957Z,101782.19
2022-11-29T23:34:52.314Z,101770.69
2022-11-29T23:37:18.663Z,101768.13
2022-11-29T23:39:45.079Z,101765.38
2022-11-29T23:42:11.466Z,101773.09
2022-11-29T23:44:37.823Z,101769.22
2022-11-29T23:47:04.175Z,101774.09
2022-11-29T23:49:30.857Z,101771.09
2022-11-29T23:51:57.389Z,101765.47
2022-11-29T23:54:23.732Z,101761.00
2022-11-29T23:56:50.124Z,101764.56
2022-11-29T23:59:16.512Z,101771.25
